Impacts METAR Board INFO
IDs:

KCLE - Cleveland/Hopkins In, OH, US

Updated at: 1157 UTC 18 Jan 2018
Potential Impact None Slight Moderate High
Time17/23Z 18/00Z 18/01Z 18/02Z 18/03Z 18/04Z 18/05Z 18/06Z 18/07Z 18/08Z 18/09Z 18/10Z 18/11Z
VIS10 10 10 10 10 10 10 10 10 10 10 10 10
CIG-- -- -- -- -- -- -- 150 -- -- -- -- --
CoverCLRCLRCLRCLRCLRFEWSCTBKNSCTFEWFEWFEWFEW
FltCatVFRVFRVFRVFRVFRVFRVFRVFRVFRVFRVFRVFRVFR
WX--------------------------
WDir210220220220220210200200210220210230240
WSpd11 8 13 10 9 11 12 11 17 13 13 14 14
WGst-- 18 -- -- -- -- -- -- 22 21 -- 22 --
Raw hourly METARs
KCLE 172251Z 21011KT 10SM CLR M08/M12 A3039 RMK AO2 SLP306 T10781122
KCLE 172351Z 22008G18KT 10SM CLR M09/M13 A3038 RMK AO2 SLP302 4/003 T10891133 11067 21089 56013
KCLE 180051Z 22013KT 10SM CLR M09/M13 A3035 RMK AO2 SLP295 T10891133
KCLE 180151Z 22010KT 10SM CLR M09/M14 A3034 RMK AO2 SLP290 T10891139
KCLE 180251Z 22009KT 10SM CLR M09/M14 A3032 RMK AO2 SLP283 T10941139 56018
KCLE 180351Z 21011KT 10SM FEW110 M09/M14 A3030 RMK AO2 SLP275 T10941139
KCLE 180451Z 20012KT 10SM SCT160 M09/M14 A3027 RMK AO2 SLP266 T10941139 410671167
KCLE 180551Z 20011KT 10SM BKN150 M09/M14 A3024 RMK AO2 SLP255 4/003 T10941139 11089 21100 58026
KCLE 180651Z 21017G22KT 10SM SCT150 M08/M14 A3021 RMK AO2 SLP244 T10831139
KCLE 180751Z 22013G21KT 10SM FEW150 FEW250 M08/M15 A3021 RMK AO2 SLP245 T10831150
KCLE 180851Z 21013KT 10SM FEW250 M08/M15 A3019 RMK AO2 SLP237 T10831150 56017
KCLE 180951Z 23014G22KT 10SM FEW250 M08/M15 A3017 RMK AO2 SLP230 T10831150
KCLE 181051Z 24014KT 10SM FEW250 M09/M15 A3019 RMK AO2 SLP236 T10891150